Saguache, CO

9:33 AM MDT on October 01, 2016 (GMT -0600)
Saguache

Weather History for K04V - October, 2012

Change the Weather History Date:

Wednesday, October 3, 2012

  Actual Average (KALS) Record (KALS)
Temperature  
Mean Temperature 60 °F 48 °F  
Max Temperature 77 °F 67 °F 78 °F (1979)
Min Temperature 42 °F 29 °F 16 °F (1961)
Degree Days  
Heating Degree Days 6 17  
Month to date heating degree days 49  
Since 1 July heating degree days 480  
Cooling Degree Days 0 0  
Month to date cooling degree days 0  
Year to date cooling degree days 51  
Growing Degree Days 10 (Base 50)    
Moisture  
Dew Point 18 °F    
Average Humidity 23    
Maximum Humidity 42    
Minimum Humidity 10    
Precipitation  
Precipitation 0.00 in 0.02 in 0.81 in (1959)
Month to date precipitation 0.07  
Year to date precipitation 5.93  
Snow  
Snow 0.00 in 0.10 in 6.40 in (1959)
Month to date snowfall 0.1  
Since 1 July snowfall 0.1  
Since 1 September snowfall 0.1  
Snow Depth -    
Sea Level Pressure  
Sea Level Pressure 30.18 in    
Wind  
Wind Speed 12 mph (NNW)    
Max Wind Speed 34 mph    
Max Gust Speed 44 mph    
Visibility 10 miles    
Events      
T = Trace of Precipitation, MM = Missing Value Source: NWS Daily Summary

Daily Weather History Graph

Daily Weather History Graph

Search for Another Location

Airport or City:

Trip Planner

Search our weather history database for the weather conditions in past years. The results will help you decide how hot, cold, wet, or windy it might be!

Date:

Astronomy

Oct. 03, 2012 Rise Set
Actual Time 7:02 AM MDT 6:43 PM MDT
Civil Twilight 6:36 AM MDT 7:10 PM MDT
Nautical Twilight 6:05 AM MDT 7:40 PM MDT
Astronomical Twilight 5:35 AM MDT 8:11 PM MDT
Moon 8:41 PM MDT (10/3) 10:24 AM MDT (10/3)
Length of Visible Light 12h 33m
Length of Day
11h 41m
Waning Gibbous, 88% of the Moon is Illuminated
Oct 3
Waning Gibbous
Oct 8
Last Quarter
Oct 15
New
Oct 21
First Quarter
Oct 29
Full

Hourly Weather History & Observations

Time (MDT) Temp. Windchill Dew Point Humidity Pressure Visibility Wind Dir Wind Speed Gust Speed Precip Events Conditions
12:02 AM 59.0 °F - 17.6 °F 20% 30.19 in 10.0 mi NW 12.7 mph - N/A   Clear
12:24 AM 53.6 °F - 17.6 °F 24% 30.19 in 10.0 mi NNW 9.2 mph - N/A   Clear
12:49 AM 50.0 °F - 17.6 °F 28% 30.17 in 10.0 mi NNW 9.2 mph - N/A   Clear
1:06 AM 46.4 °F 42.9 °F 17.6 °F 32% 30.18 in 10.0 mi WNW 6.9 mph - N/A   Clear
1:25 AM 50.0 °F - 19.4 °F 30% 30.19 in 10.0 mi West 5.8 mph - N/A   Clear
1:44 AM 50.0 °F - 19.4 °F 30% 30.19 in 10.0 mi WNW 5.8 mph - N/A   Clear
2:04 AM 50.0 °F - 19.4 °F 30% 30.19 in 10.0 mi NNW 3.5 mph - N/A   Clear
2:25 AM 46.4 °F 43.5 °F 19.4 °F 34% 30.19 in 10.0 mi NNW 5.8 mph - N/A   Clear
2:45 AM 46.4 °F 40.7 °F 19.4 °F 34% 30.19 in 10.0 mi NW 12.7 mph - N/A   Clear
3:04 AM 48.2 °F - 19.4 °F 32% 30.18 in 10.0 mi NW 11.5 mph - N/A   Clear
3:24 AM 46.4 °F 42.4 °F 19.4 °F 34% 30.18 in 10.0 mi NNW 8.1 mph - N/A   Clear
3:45 AM 44.6 °F 39.7 °F 19.4 °F 37% 30.18 in 10.0 mi NNW 9.2 mph - N/A   Clear
4:05 AM 46.4 °F 41.9 °F 19.4 °F 34% 30.19 in 10.0 mi NNW 9.2 mph - N/A   Clear
4:45 AM 46.4 °F 42.4 °F 19.4 °F 34% 30.18 in 10.0 mi North 8.1 mph - N/A   Clear
5:05 AM 46.4 °F 42.9 °F 19.4 °F 34% 30.19 in 10.0 mi NNW 6.9 mph - N/A   Clear
5:23 AM 44.6 °F 39.7 °F 21.2 °F 39% 30.19 in 10.0 mi NNW 9.2 mph - N/A   Clear
5:45 AM 44.6 °F 39.2 °F 21.2 °F 39% 30.19 in 10.0 mi North 10.4 mph - N/A   Clear
6:04 AM 46.4 °F 41.9 °F 21.2 °F 37% 30.20 in 10.0 mi North 9.2 mph - N/A   Clear
6:24 AM 44.6 °F 38.8 °F 21.2 °F 39% 30.19 in 10.0 mi North 11.5 mph - N/A   Clear
6:50 AM 42.8 °F 41.1 °F 21.2 °F 42% 30.21 in 10.0 mi NW 3.5 mph - N/A   Clear
7:07 AM 44.6 °F 43.1 °F 21.2 °F 39% 30.21 in 10.0 mi NNW 3.5 mph - N/A   Clear
7:23 AM 42.8 °F 41.1 °F 21.2 °F 42% 30.21 in 10.0 mi NNW 3.5 mph - N/A   Clear
7:49 AM 44.6 °F - 21.2 °F 39% 30.21 in 10.0 mi Calm Calm - N/A   Clear
8:07 AM 48.2 °F - 21.2 °F 34% 30.22 in 10.0 mi Calm Calm - N/A   Clear
8:35 AM 53.6 °F - 24.8 °F 33% 30.21 in 10.0 mi NW 10.4 mph - N/A   Clear
8:52 AM 53.6 °F - 23.0 °F 30% 30.22 in 10.0 mi WNW 6.9 mph - N/A   Clear
9:09 AM 55.4 °F - 23.0 °F 29% 30.22 in 10.0 mi Calm Calm - N/A   Clear
9:24 AM 57.2 °F - 26.6 °F 31% 30.22 in 10.0 mi SSE 11.5 mph - N/A   Clear
9:44 AM 55.4 °F - 24.8 °F 31% 30.22 in 10.0 mi SSE 8.1 mph - N/A   Clear
10:15 AM 59.0 °F - 24.8 °F 27% 30.21 in 10.0 mi SSE 9.2 mph - N/A   Clear
10:24 AM 59.0 °F - 24.8 °F 27% 30.21 in 10.0 mi SE 10.4 mph - N/A   Clear
10:43 AM 60.8 °F - 24.8 °F 25% 30.21 in 10.0 mi SE 9.2 mph - N/A   Clear
11:04 AM 60.8 °F - 24.8 °F 25% 30.20 in 10.0 mi SE 9.2 mph - N/A   Clear
11:24 AM 62.6 °F - 26.6 °F 26% 30.19 in 10.0 mi SSE 8.1 mph - N/A   Clear
11:55 AM 66.2 °F - 24.8 °F 21% 30.17 in 10.0 mi SE 8.1 mph - N/A   Clear
12:15 PM 71.6 °F - 17.6 °F 13% 30.17 in 10.0 mi NNW 23.0 mph 29.9 mph N/A   Clear
12:24 PM 73.4 °F - 17.6 °F 12% 30.16 in 10.0 mi NNW 27.6 mph 34.5 mph N/A   Clear
12:45 PM 73.4 °F - 15.8 °F 11% 30.15 in 10.0 mi NNW 26.5 mph 35.7 mph N/A   Clear
1:12 PM 73.4 °F - 15.8 °F 11% 30.14 in 10.0 mi NNW 29.9 mph 42.6 mph N/A   Clear
1:26 PM 73.4 °F - 15.8 °F 11% 30.13 in 10.0 mi NNW 26.5 mph 35.7 mph N/A   Clear
1:54 PM 75.2 °F - 15.8 °F 11% 30.12 in 10.0 mi NNW 26.5 mph 39.1 mph N/A   Clear
2:02 PM 77.0 °F - 17.6 °F 11% 30.12 in 10.0 mi NW 26.5 mph 34.5 mph N/A   Clear
2:35 PM 75.2 °F - 14.0 °F 10% 30.12 in 10.0 mi NW 29.9 mph 41.4 mph N/A   Clear
2:43 PM 75.2 °F - 14.0 °F 10% 30.12 in 10.0 mi NNW 34.5 mph 43.7 mph N/A   Clear
3:15 PM 75.2 °F - 14.0 °F 10% 30.11 in 10.0 mi NW 24.2 mph 38.0 mph N/A   Clear
3:23 PM 77.0 °F - 15.8 °F 10% 30.11 in 10.0 mi NW 24.2 mph 35.7 mph N/A   Clear
3:44 PM 77.0 °F - 15.8 °F 10% 30.11 in 10.0 mi NW 24.2 mph 35.7 mph N/A   Clear
4:04 PM 75.2 °F - 15.8 °F 11% 30.11 in 10.0 mi NNW 25.3 mph 36.8 mph N/A   Clear
4:31 PM 77.0 °F - 15.8 °F 10% 30.11 in 10.0 mi NW 24.2 mph 33.4 mph N/A   Clear
4:43 PM 73.4 °F - 14.0 °F 10% 30.12 in 10.0 mi NW 23.0 mph 35.7 mph N/A   Clear
5:04 PM 73.4 °F - 14.0 °F 10% 30.12 in 10.0 mi NNW 24.2 mph 33.4 mph N/A   Clear
5:24 PM 73.4 °F - 14.0 °F 10% 30.12 in 10.0 mi NNW 21.9 mph 29.9 mph N/A   Clear
5:43 PM 73.4 °F - 15.8 °F 11% 30.13 in 10.0 mi NNW 19.6 mph 32.2 mph N/A   Clear
6:03 PM 73.4 °F - 15.8 °F 11% 30.13 in 10.0 mi NW 23.0 mph 31.1 mph N/A   Clear
6:23 PM 69.8 °F - 14.0 °F 12% 30.14 in 10.0 mi NNW 21.9 mph 28.8 mph N/A   Clear
6:43 PM 66.2 °F - 12.2 °F 12% 30.14 in 10.0 mi NNW 21.9 mph 33.4 mph N/A   Clear
7:03 PM 66.2 °F - 14.0 °F 13% 30.15 in 10.0 mi NNW 18.4 mph - N/A   Clear
7:23 PM 66.2 °F - 14.0 °F 13% 30.16 in 10.0 mi NNW 23.0 mph 32.2 mph N/A   Clear
7:46 PM 64.4 °F - 14.0 °F 14% 30.17 in 10.0 mi NNW 17.3 mph 24.2 mph N/A   Clear
8:05 PM 64.4 °F - 14.0 °F 14% 30.18 in 10.0 mi NNW 11.5 mph 26.5 mph N/A   Clear
8:25 PM 64.4 °F - 12.2 °F 13% 30.20 in 10.0 mi NW 10.4 mph 24.2 mph N/A   Clear
8:45 PM 59.0 °F - 15.8 °F 19% 30.21 in 10.0 mi SW 4.6 mph - N/A   Clear
9:05 PM 59.0 °F - 15.8 °F 19% 30.22 in 10.0 mi South 3.5 mph - N/A   Clear
9:26 PM 59.0 °F - 17.6 °F 20% 30.22 in 10.0 mi Calm Calm - N/A   Clear
9:45 PM 59.0 °F - 14.0 °F 17% 30.22 in 10.0 mi WNW 6.9 mph - N/A   Clear
10:06 PM 59.0 °F - 15.8 °F 19% 30.22 in 10.0 mi NW 10.4 mph - N/A   Clear
10:26 PM 53.6 °F - 15.8 °F 22% 30.23 in 10.0 mi NNW 8.1 mph - N/A   Clear
10:46 PM 48.2 °F - 14.0 °F 25% 30.24 in 10.0 mi NNE 8.1 mph - N/A   Clear
11:15 PM 50.0 °F - 15.8 °F 26% 30.25 in 10.0 mi North 5.8 mph - N/A   Clear
11:24 PM 51.8 °F - 15.8 °F 24% 30.25 in 10.0 mi Calm Calm - N/A   Clear
11:45 PM 46.4 °F 43.5 °F 14.0 °F 27% 30.25 in 10.0 mi North 5.8 mph - N/A   Clear